Time;durP1;ratioP1;P1;durP2;ratioP2;P2;SDS_P1;SDS_P2;PMS_P1;PMS_P2;Temp;Humidity;BMP_temperature;BMP_pressure;BME280_temperature;BME280_humidity;BME280_pressure;Samples;Min_cycle;Max_cycle;Signal;HPM_P1;HPM_P2
2021/12/28 00:01:16;;;;;;;6.42;4.47;;;;;;;6.53;64.96;101175.18;1751777;80;21490;-56
2021/12/28 00:03:44;;;;;;;9.05;4.40;;;;;;;6.54;64.98;101163.96;1751586;80;20994;-56
2021/12/28 00:06:12;;;;;;;6.25;3.75;;;;;;;6.55;65.09;101167.83;1753173;81;21018;-55
2021/12/28 00:08:39;;;;;;;8.78;4.28;;;;;;;6.56;65.10;101182.92;1769567;80;21097;-55
2021/12/28 00:11:06;;;;;;;6.87;4.05;;;;;;;6.56;65.15;101169.57;1754838;80;21051;-55
2021/12/28 00:13:33;;;;;;;8.30;3.80;;;;;;;6.56;65.19;101173.45;1761660;80;20987;-57
2021/12/28 00:16:13;;;;;;;7.33;4.15;;;;;;;6.56;65.29;101169.57;1758827;80;21101;-57
2021/12/28 00:18:28;;;;;;;6.33;3.55;;;;;;;6.58;65.33;101165.27;1747749;80;20985;-58
2021/12/28 00:20:58;;;;;;;5.72;2.90;;;;;;;6.59;65.40;101159.22;1769857;80;21007;-56
2021/12/28 00:23:31;;;;;;;4.00;3.05;;;;;;;6.61;65.39;101154.48;1770062;80;21057;-56
2021/12/28 00:25:55;;;;;;;7.10;3.42;;;;;;;6.61;65.49;101148.03;1749067;81;21005;-57
2021/12/28 00:28:22;;;;;;;6.78;3.12;;;;;;;6.61;65.50;101146.31;1749285;81;20970;-57
2021/12/28 00:30:49;;;;;;;5.17;2.92;;;;;;;6.61;65.56;101164.41;1747999;80;21019;-56
2021/12/28 00:33:18;;;;;;;4.78;2.75;;;;;;;6.64;65.54;101149.30;1769120;80;21007;-56
2021/12/28 00:35:44;;;;;;;6.17;2.80;;;;;;;6.62;65.54;101151.90;1762475;80;20951;-56
2021/12/28 00:38:14;;;;;;;4.53;3.00;;;;;;;6.62;65.64;101152.32;1751005;80;21006;-56
2021/12/28 00:40:42;;;;;;;4.30;3.25;;;;;;;6.63;65.67;101147.17;1752742;81;20990;-56
2021/12/28 00:43:08;;;;;;;7.65;2.83;;;;;;;6.64;65.57;101138.53;1765954;80;21034;-56
2021/12/28 00:45:36;;;;;;;3.40;2.70;;;;;;;6.65;65.58;101144.58;1778344;80;21026;-56
2021/12/28 00:48:04;;;;;;;5.30;2.58;;;;;;;6.65;65.65;101132.52;1773284;80;21078;-56
2021/12/28 00:50:30;;;;;;;5.87;2.20;;;;;;;6.66;65.71;101108.37;1761881;80;21521;-56
2021/12/28 00:52:56;;;;;;;7.08;2.50;;;;;;;6.68;65.78;101103.22;1745580;80;21538;-57
2021/12/28 00:55:23;;;;;;;5.53;2.45;;;;;;;6.67;65.74;101101.48;1754414;80;21058;-56
2021/12/28 00:57:50;;;;;;;7.65;2.87;;;;;;;6.69;65.81;101097.17;1758889;80;21016;-56
2021/12/28 01:00:22;;;;;;;5.92;2.30;;;;;;;6.69;65.85;101086.41;1760471;80;21014;-56
2021/12/28 01:02:49;;;;;;;6.92;2.30;;;;;;;6.70;65.90;101083.39;1727120;82;21086;-57
2021/12/28 01:05:15;;;;;;;6.33;2.62;;;;;;;6.71;65.94;101085.10;1741494;82;21061;-57
2021/12/28 01:07:42;;;;;;;4.08;2.98;;;;;;;6.71;65.94;101072.17;1716106;82;21573;-57
2021/12/28 01:10:13;;;;;;;5.22;2.52;;;;;;;6.71;66.02;101069.59;1728648;82;21541;-56
2021/12/28 01:12:40;;;;;;;;;;;;;;;6.73;66.13;101081.66;1736141;82;21000;-55
2021/12/28 01:15:08;;;;;;;5.28;2.27;;;;;;;6.75;66.22;101067.00;1737641;82;20398;-56
2021/12/28 01:17:36;;;;;;;4.03;2.15;;;;;;;6.78;66.14;101060.97;1738272;82;21526;-56
2021/12/28 01:20:05;;;;;;;5.83;2.27;;;;;;;6.80;66.05;101061.83;1728436;82;21607;-56
2021/12/28 01:22:32;;;;;;;5.58;2.10;;;;;;;6.81;65.97;101068.70;1729561;81;21013;-57
2021/12/28 01:24:59;;;;;;;4.22;2.02;;;;;;;6.82;65.97;101067.86;1737968;82;21038;-57
2021/12/28 01:27:25;;;;;;;6.78;2.62;;;;;;;6.84;66.07;101063.55;1742200;82;21561;-56
2021/12/28 01:29:52;;;;;;;4.87;2.05;;;;;;;6.87;66.04;101060.94;1734703;82;21098;-56
2021/12/28 01:32:18;;;;;;;4.45;2.00;;;;;;;6.90;66.03;101063.53;1720177;82;20989;-56
2021/12/28 01:34:46;;;;;;;5.47;1.85;;;;;;;6.90;65.97;101061.81;1746732;81;21178;-57
2021/12/28 01:37:13;;;;;;;5.85;2.22;;;;;;;6.90;65.96;101055.34;1748054;81;21058;-56
2021/12/28 01:39:39;;;;;;;5.40;2.00;;;;;;;6.92;65.89;101069.14;1748054;81;21061;-55
2021/12/28 01:42:07;;;;;;;6.35;2.15;;;;;;;6.91;65.83;101071.70;1735834;81;21065;-56
2021/12/28 01:44:35;;;;;;;3.72;1.62;;;;;;;6.91;65.78;101075.59;1738105;82;21578;-57
2021/12/28 01:47:02;;;;;;;6.05;1.72;;;;;;;6.92;65.77;101074.73;1737223;82;21508;-55
2021/12/28 01:49:29;;;;;;;3.33;1.95;;;;;;;6.93;65.78;101062.21;1731098;82;21113;-56
2021/12/28 01:51:55;;;;;;;6.67;1.75;;;;;;;6.95;65.70;101069.54;1737594;82;21085;-55
2021/12/28 01:54:21;;;;;;;5.37;1.82;;;;;;;6.95;65.63;101059.19;1734547;82;21048;-56
2021/12/28 01:56:48;;;;;;;3.95;1.67;;;;;;;6.94;65.60;101057.48;1721901;82;21065;-55
2021/12/28 01:59:18;;;;;;;5.60;1.98;;;;;;;6.94;65.67;101051.89;1742938;81;21013;-55
2021/12/28 02:01:45;;;;;;;5.50;1.92;;;;;;;6.96;65.66;101047.99;1747733;80;21013;-56
2021/12/28 02:04:21;;;;;;;5.90;1.80;;;;;;;6.97;65.68;101041.94;1763911;80;21529;-56
2021/12/28 02:06:49;;;;;;;3.50;1.67;;;;;;;6.98;65.67;101043.25;1771776;80;21552;-56
2021/12/28 02:09:16;;;;;;;1.90;1.42;;;;;;;6.98;65.62;101054.02;1765008;80;21486;-56
2021/12/28 02:11:44;;;;;;;5.10;1.60;;;;;;;6.97;65.57;101041.94;1754319;81;21070;-55
2021/12/28 02:14:11;;;;;;;4.37;1.17;;;;;;;6.94;65.45;101030.33;1755225;80;21457;-56
2021/12/28 02:16:41;;;;;;;2.58;1.75;;;;;;;6.93;65.49;101041.09;1752900;80;21057;-55
2021/12/28 02:19:10;;;;;;;8.67;2.00;;;;;;;6.91;65.53;101018.67;1755785;80;21026;-56
2021/12/28 02:21:36;;;;;;;2.30;1.40;;;;;;;6.92;65.57;101025.59;1761052;80;21065;-56
2021/12/28 02:24:05;;;;;;;3.92;1.20;;;;;;;6.91;65.66;101016.95;1759543;80;21035;-56
2021/12/28 02:26:33;;;;;;;3.20;1.45;;;;;;;6.92;65.52;101006.19;1753358;80;21066;-56
2021/12/28 02:29:00;;;;;;;3.00;1.10;;;;;;;6.92;65.57;101012.66;1753677;81;20991;-55
2021/12/28 02:31:26;;;;;;;2.75;1.40;;;;;;;6.91;65.53;101005.74;1763853;80;21501;-55
2021/12/28 02:33:53;;;;;;;3.72;1.45;;;;;;;6.91;65.62;101018.67;1761017;80;21524;-56
2021/12/28 02:36:19;;;;;;;2.60;0.98;;;;;;;6.94;65.69;101014.80;1760655;80;21046;-55
2021/12/28 02:38:46;;;;;;;2.65;1.27;;;;;;;6.97;65.72;101009.60;1759562;80;21030;-57
2021/12/28 02:41:13;;;;;;;3.90;1.42;;;;;;;7.00;65.75;101001.84;1758376;80;21525;-56
2021/12/28 02:43:43;;;;;;;5.08;1.37;;;;;;;7.01;65.64;101010.89;1757071;80;21497;-56
2021/12/28 02:46:10;;;;;;;3.47;1.15;;;;;;;7.02;65.47;101011.75;1759110;80;21057;-55
2021/12/28 02:48:37;;;;;;;2.80;1.00;;;;;;;7.02;65.34;101009.17;1758198;80;21062;-55
2021/12/28 02:51:13;;;;;;;8.55;1.95;;;;;;;7.01;65.31;101012.61;1762068;80;20999;-55
2021/12/28 02:53:41;;;;;;;4.45;1.37;;;;;;;7.01;65.39;101004.42;1763102;80;21091;-56
2021/12/28 02:56:08;;;;;;;3.12;1.20;;;;;;;7.02;65.47;101009.17;1760145;80;21064;-55
2021/12/28 02:58:41;;;;;;;2.17;0.98;;;;;;;7.04;65.38;101011.31;1762833;80;21087;-55
2021/12/28 03:01:24;;;;;;;8.70;1.55;;;;;;;7.03;65.42;101008.28;1752407;80;20987;-55
2021/12/28 03:04:04;;;;;;;2.90;1.10;;;;;;;7.03;65.44;101000.52;1748511;80;21070;-54
2021/12/28 03:06:31;;;;;;;3.70;1.32;;;;;;;7.05;65.45;100996.20;1766820;80;21069;-56
2021/12/28 03:08:59;;;;;;;3.30;1.22;;;;;;;7.06;65.39;100993.64;1770043;80;21022;-55
2021/12/28 03:11:28;;;;;;;3.05;1.22;;;;;;;7.02;65.57;100993.64;1759020;80;21044;-55
2021/12/28 03:13:57;;;;;;;3.98;1.50;;;;;;;7.05;65.44;100989.31;1754051;81;21101;-55
2021/12/28 03:16:26;;;;;;;2.83;1.15;;;;;;;7.06;65.40;100988.89;1750786;81;21172;-55
2021/12/28 03:18:52;;;;;;;4.12;0.90;;;;;;;7.06;65.41;100991.47;1759662;80;21061;-55
2021/12/28 03:21:20;;;;;;;1.37;0.85;;;;;;;7.05;65.41;100993.19;1771516;80;21069;-55
2021/12/28 03:23:48;;;;;;;1.67;0.90;;;;;;;7.07;65.34;100981.53;1781208;80;21017;-57
2021/12/28 03:26:15;;;;;;;4.00;1.10;;;;;;;7.06;65.23;100978.53;1753190;80;21061;-55
2021/12/28 03:28:43;;;;;;;6.33;1.17;;;;;;;7.06;65.32;100972.94;1756261;80;21060;-55
2021/12/28 03:31:14;;;;;;;2.67;1.20;;;;;;;7.07;65.28;100966.01;1748614;80;21582;-55
2021/12/28 03:33:42;;;;;;;;;;;;;;;7.09;65.33;100983.25;1767221;80;21032;-55
2021/12/28 03:36:09;;;;;;;4.28;1.20;;;;;;;7.10;65.31;100971.19;1748300;80;20395;-55
2021/12/28 03:38:37;;;;;;;1.70;0.57;;;;;;;7.10;65.21;100966.02;1769729;80;21505;-55
2021/12/28 03:41:07;;;;;;;6.35;1.20;;;;;;;7.09;65.20;100981.12;1774436;80;21031;-55
2021/12/28 03:43:33;;;;;;;3.50;0.93;;;;;;;7.08;65.23;100972.50;1756881;80;21432;-57
2021/12/28 03:46:01;;;;;;;5.40;1.32;;;;;;;7.10;65.20;100979.81;1759507;80;21024;-55
2021/12/28 03:48:27;;;;;;;2.75;1.00;;;;;;;7.12;65.11;100968.16;1749394;80;21137;-55
2021/12/28 03:50:54;;;;;;;5.55;1.27;;;;;;;7.13;65.03;100978.95;1763201;80;21020;-55
2021/12/28 03:53:21;;;;;;;4.95;1.00;;;;;;;7.12;65.03;100970.75;1757567;80;21030;-55
2021/12/28 03:55:48;;;;;;;4.50;1.27;;;;;;;7.13;65.09;100973.78;1773828;80;21058;-55
2021/12/28 03:58:16;;;;;;;4.58;1.20;;;;;;;7.15;65.07;100972.05;1757151;80;21026;-55
2021/12/28 04:00:44;;;;;;;3.42;0.85;;;;;;;7.14;65.03;100977.64;1754645;80;21037;-54
2021/12/28 04:03:12;;;;;;;5.37;1.12;;;;;;;7.15;64.93;100979.80;1765110;81;21022;-54
2021/12/28 04:05:43;;;;;;;2.27;0.98;;;;;;;7.14;64.83;100976.77;1750694;80;21513;-55
2021/12/28 04:08:10;;;;;;;4.95;1.30;;;;;;;7.13;64.77;100972.48;1751779;80;21578;-55
2021/12/28 04:10:51;;;;;;;5.60;1.20;;;;;;;7.13;64.76;100960.84;1747041;81;21030;-55
2021/12/28 04:13:08;;;;;;;1.85;0.90;;;;;;;7.13;64.73;100964.72;1766123;80;20987;-55
2021/12/28 04:15:35;;;;;;;3.87;1.25;;;;;;;7.10;64.61;100969.47;1759013;81;21007;-55
2021/12/28 04:18:02;;;;;;;6.20;1.62;;;;;;;7.09;64.66;100975.49;1755837;80;21057;-55
2021/12/28 04:20:29;;;;;;;5.28;1.20;;;;;;;7.10;64.69;100980.24;1757830;80;21501;-54
2021/12/28 04:22:56;;;;;;;4.78;2.12;;;;;;;7.09;64.67;100975.49;1749829;80;21124;-55
2021/12/28 04:25:23;;;;;;;4.37;2.30;;;;;;;7.10;64.68;100981.54;1752057;80;21001;-55
2021/12/28 04:27:49;;;;;;;4.08;1.20;;;;;;;7.09;64.64;100981.12;1774479;80;21025;-55
2021/12/28 04:30:17;;;;;;;4.78;1.75;;;;;;;7.10;64.56;100990.59;1758897;80;21047;-54
2021/12/28 04:32:43;;;;;;;2.65;1.40;;;;;;;7.08;64.52;100991.03;1764676;80;21018;-55
2021/12/28 04:35:11;;;;;;;3.95;1.00;;;;;;;7.07;64.50;100984.12;1770466;80;21030;-54
2021/12/28 04:37:39;;;;;;;7.30;1.25;;;;;;;7.06;64.48;100988.46;1770075;80;21094;-54
2021/12/28 04:40:07;;;;;;;4.28;1.25;;;;;;;7.07;64.43;100991.45;1755233;80;21042;-54
2021/12/28 04:42:36;;;;;;;4.75;1.27;;;;;;;7.05;64.19;100983.27;1756945;80;21028;-54
2021/12/28 04:45:06;;;;;;;2.00;1.00;;;;;;;7.01;64.17;100978.97;1761413;80;21070;-54
2021/12/28 04:47:34;;;;;;;1.67;0.80;;;;;;;6.97;64.20;100988.48;1766030;80;21486;-54
2021/12/28 04:50:00;;;;;;;4.67;1.32;;;;;;;6.96;64.14;100980.73;1758469;80;21101;-55
2021/12/28 04:52:30;;;;;;;4.87;1.32;;;;;;;6.93;64.19;100987.20;1742391;81;21065;-54
2021/12/28 04:54:55;;;;;;;2.75;1.10;;;;;;;6.90;64.24;100978.17;1763143;80;21054;-54
2021/12/28 04:57:21;;;;;;;3.08;0.98;;;;;;;6.87;64.27;100974.28;1762590;80;21510;-55
2021/12/28 04:59:48;;;;;;;3.72;1.15;;;;;;;6.84;64.30;100980.78;1760606;80;21042;-55
2021/12/28 05:02:14;;;;;;;4.25;1.25;;;;;;;6.81;64.31;100975.59;1758519;80;21029;-56
2021/12/28 05:04:41;;;;;;;2.05;0.75;;;;;;;6.79;64.41;100976.03;1768345;80;21019;-55
2021/12/28 05:07:07;;;;;;;1.45;0.78;;;;;;;6.77;64.44;100979.06;1768965;81;21051;-55
2021/12/28 05:09:34;;;;;;;3.65;1.55;;;;;;;6.73;64.53;100982.52;1755032;80;21038;-55
2021/12/28 05:12:02;;;;;;;2.52;0.70;;;;;;;6.72;64.58;100980.81;1763940;80;21069;-55
2021/12/28 05:14:28;;;;;;;2.37;1.27;;;;;;;6.70;64.58;100989.84;1751375;81;21050;-55
2021/12/28 05:16:57;;;;;;;3.00;1.10;;;;;;;6.69;64.56;100990.73;1758655;80;21054;-55
2021/12/28 05:19:23;;;;;;;3.05;1.20;;;;;;;6.67;64.64;100990.30;1761339;80;21030;-55
2021/12/28 05:21:49;;;;;;;1.98;1.07;;;;;;;6.65;64.51;100993.31;1771754;80;21050;-55
2021/12/28 05:24:16;;;;;;;2.87;1.32;;;;;;;6.63;64.38;101002.80;1762685;80;21040;-55
2021/12/28 05:26:42;;;;;;;1.67;0.85;;;;;;;6.58;64.39;100997.20;1758230;80;20999;-55
2021/12/28 05:29:08;;;;;;;1.60;0.90;;;;;;;6.54;64.31;100992.91;1758811;80;21057;-55
2021/12/28 05:31:35;;;;;;;3.02;0.88;;;;;;;6.51;64.22;100999.36;1762861;80;21074;-55
2021/12/28 05:34:02;;;;;;;4.00;1.57;;;;;;;6.47;63.97;101005.39;1755558;80;21085;-55
2021/12/28 05:36:30;;;;;;;3.20;1.07;;;;;;;6.41;63.94;101011.87;1766699;80;21006;-55
2021/12/28 05:38:56;;;;;;;4.05;1.37;;;;;;;6.37;63.90;101009.28;1772292;80;21030;-55
2021/12/28 05:41:22;;;;;;;1.92;1.10;;;;;;;6.33;63.99;101021.35;1734534;81;20998;-55
2021/12/28 05:43:49;;;;;;;3.52;1.20;;;;;;;6.31;63.98;101032.12;1744816;81;21064;-55
2021/12/28 05:46:15;;;;;;;1.47;0.95;;;;;;;6.28;63.93;101036.02;1752693;80;21068;-55
2021/12/28 05:48:42;;;;;;;2.05;1.40;;;;;;;6.26;63.96;101036.87;1772808;80;21088;-54
2021/12/28 05:51:08;;;;;;;1.75;1.30;;;;;;;6.25;64.01;101041.17;1756341;80;21021;-54
2021/12/28 05:53:36;;;;;;;2.27;1.50;;;;;;;6.26;64.08;101045.48;1754385;80;21042;-55
2021/12/28 05:56:03;;;;;;;3.90;1.45;;;;;;;6.25;63.92;101051.50;1754755;80;21053;-54
2021/12/28 05:58:29;;;;;;;2.50;1.35;;;;;;;6.24;63.91;101048.50;1750931;80;21033;-55
2021/12/28 06:00:55;;;;;;;2.20;1.40;;;;;;;6.24;63.94;101052.80;1760365;80;21046;-54
2021/12/28 06:03:22;;;;;;;1.60;1.30;;;;;;;6.24;63.77;101062.72;1769135;80;20987;-54
2021/12/28 06:05:48;;;;;;;2.30;1.50;;;;;;;6.21;63.63;101073.03;1762023;80;21020;-54
2021/12/28 06:08:15;;;;;;;2.92;1.60;;;;;;;6.18;63.63;101074.31;1749713;80;21006;-55
2021/12/28 06:10:41;;;;;;;2.20;1.35;;;;;;;6.17;63.54;101073.89;1755981;80;21050;-54
2021/12/28 06:13:08;;;;;;;2.95;1.20;;;;;;;6.14;63.52;101071.30;1740501;80;20952;-55
2021/12/28 06:15:35;;;;;;;3.52;1.72;;;;;;;6.13;63.55;101078.63;1767280;80;21058;-55
2021/12/28 06:18:02;;;;;;;1.47;1.32;;;;;;;6.12;63.39;101069.14;1752957;80;21518;-55
2021/12/28 06:20:28;;;;;;;2.92;1.60;;;;;;;6.11;63.43;101067.43;1762110;80;21012;-56
2021/12/28 06:22:56;;;;;;;1.82;1.72;;;;;;;6.07;63.38;101077.33;1753006;80;21472;-56
2021/12/28 06:25:23;;;;;;;2.17;1.95;;;;;;;6.03;63.42;101075.60;1752937;80;21121;-55
2021/12/28 06:27:49;;;;;;;2.87;2.33;;;;;;;5.98;63.44;101084.17;1748471;80;21056;-56
2021/12/28 06:30:16;;;;;;;3.17;2.58;;;;;;;5.93;63.45;101075.16;1747221;80;20991;-55
2021/12/28 06:32:42;;;;;;;2.50;2.30;;;;;;;5.88;63.46;101072.98;1760480;80;21019;-55
2021/12/28 06:35:09;;;;;;;4.75;2.40;;;;;;;5.83;63.62;101069.50;1771461;80;21022;-55
2021/12/28 06:37:37;;;;;;;2.37;2.15;;;;;;;5.81;63.82;101068.64;1753980;80;21073;-55
2021/12/28 06:40:06;;;;;;;2.80;2.50;;;;;;;5.83;63.87;101066.92;1752145;80;21022;-55
2021/12/28 06:42:33;;;;;;;2.40;2.20;;;;;;;5.83;63.81;101068.63;1765530;80;21483;-55
2021/12/28 06:44:59;;;;;;;2.37;2.15;;;;;;;5.82;63.82;101072.94;1757416;80;21064;-54
2021/12/28 06:47:26;;;;;;;3.92;2.50;;;;;;;5.80;63.91;101084.98;1762549;80;21119;-55
2021/12/28 06:49:52;;;;;;;2.30;2.10;;;;;;;5.82;63.91;101076.80;1741714;81;21318;-54
2021/12/28 06:52:19;;;;;;;2.92;2.70;;;;;;;5.83;63.84;101080.26;1750371;80;20992;-55
2021/12/28 06:54:46;;;;;;;4.25;2.60;;;;;;;5.82;63.91;101091.43;1750990;80;21038;-55
2021/12/28 06:57:12;;;;;;;3.30;2.70;;;;;;;5.83;63.85;101091.88;1758258;81;21068;-54
2021/12/28 06:59:45;;;;;;;2.77;2.58;;;;;;;5.89;63.72;101092.80;1744074;81;21046;-55
2021/12/28 07:02:15;;;;;;;6.12;3.30;;;;;;;5.92;63.58;101092.78;1748444;80;21554;-54
2021/12/28 07:04:42;;;;;;;5.65;3.33;;;;;;;5.93;63.33;101089.36;1744612;80;21089;-54
2021/12/28 07:07:10;;;;;;;4.10;3.00;;;;;;;5.91;63.25;101087.20;1737342;80;21047;-54
2021/12/28 07:09:37;;;;;;;5.20;3.60;;;;;;;5.89;63.25;101077.72;1733636;80;21001;-54
2021/12/28 07:12:04;;;;;;;4.17;3.75;;;;;;;5.89;63.18;101077.30;1748430;81;21026;-54
2021/12/28 07:14:31;;;;;;;4.78;3.70;;;;;;;5.83;62.96;101069.50;1731031;80;21006;-54
2021/12/28 07:16:58;;;;;;;5.28;4.30;;;;;;;5.78;62.91;101075.08;1727525;81;21649;-54
2021/12/28 07:19:25;;;;;;;4.62;3.60;;;;;;;5.74;63.14;101073.34;1750059;80;21560;-54
2021/12/28 07:21:52;;;;;;;3.72;3.37;;;;;;;5.72;63.06;101072.48;1750968;80;21593;-54
2021/12/28 07:24:19;;;;;;;4.20;3.75;;;;;;;5.70;62.90;101071.19;1718228;82;21530;-53
2021/12/28 07:26:46;;;;;;;3.52;3.22;;;;;;;5.51;63.16;101071.98;1733421;81;21553;-54
2021/12/28 07:29:14;;;;;;;4.80;3.60;;;;;;;5.49;63.46;101080.56;1739190;82;21022;-54
2021/12/28 07:35:50;;;;;;;4.45;4.05;;;;;;;5.65;63.19;101079.75;1743673;80;21121;-54
2021/12/28 07:45:09;;;;;;;6.30;4.28;;;;;;;5.69;62.85;101066.00;1736203;80;21046;-54
2021/12/28 07:47:37;;;;;;;4.92;4.08;;;;;;;5.74;62.72;101069.47;1756500;80;21477;-55
2021/12/28 07:50:06;;;;;;;5.42;4.53;;;;;;;5.72;62.57;101080.22;1743535;81;20990;-54
2021/12/28 07:52:34;;;;;;;5.12;4.40;;;;;;;5.72;62.42;101085.39;1750067;80;22278;-55
2021/12/28 07:55:04;;;;;;;5.15;4.20;;;;;;;5.73;62.35;101094.84;1751995;80;22499;-55
2021/12/28 07:57:34;;;;;;;5.58;4.15;;;;;;;5.71;62.07;101088.81;1747147;80;21103;-54
2021/12/28 08:00:05;;;;;;;5.47;4.67;;;;;;;5.70;62.20;101098.72;1745945;80;20959;-55
2021/12/28 08:02:35;;;;;;;6.05;4.90;;;;;;;5.71;62.33;101093.97;1748771;80;21586;-55
2021/12/28 08:05:01;;;;;;;5.80;4.75;;;;;;;5.77;62.14;101096.57;1752015;80;21554;-55
2021/12/28 08:07:28;;;;;;;5.60;5.00;;;;;;;5.75;61.89;101092.70;1754551;80;21521;-55
2021/12/28 08:09:56;;;;;;;6.50;5.28;;;;;;;5.71;61.99;101092.69;1753888;80;21609;-55
2021/12/28 08:12:23;;;;;;;5.15;4.65;;;;;;;5.69;61.98;101099.56;1746511;80;21545;-54
2021/12/28 08:14:49;;;;;;;6.37;5.15;;;;;;;5.69;62.13;101096.98;1752097;80;21093;-56
2021/12/28 08:17:16;;;;;;;6.20;5.05;;;;;;;5.70;61.80;101090.97;1746468;80;21090;-55
2021/12/28 08:19:43;;;;;;;6.10;5.30;;;;;;;5.68;61.57;101088.40;1763269;80;21593;-55
2021/12/28 08:22:10;;;;;;;5.85;5.05;;;;;;;5.65;61.73;101084.92;1750098;80;21062;-54
2021/12/28 08:24:37;;;;;;;6.45;5.12;;;;;;;5.54;62.03;101089.20;1737853;80;21035;-53
2021/12/28 08:27:04;;;;;;;6.00;5.25;;;;;;;5.46;61.99;101089.59;1730629;81;21408;-54
2021/12/28 08:29:31;;;;;;;5.70;5.10;;;;;;;5.53;61.67;101087.45;1763079;80;21525;-55
2021/12/28 08:31:58;;;;;;;5.80;5.20;;;;;;;5.53;61.59;101087.45;1749951;80;21585;-53
2021/12/28 08:34:25;;;;;;;5.65;5.00;;;;;;;5.52;61.47;101090.91;1700793;82;21486;-53
2021/12/28 08:36:52;;;;;;;6.12;5.17;;;;;;;5.49;61.50;101085.30;1748985;80;21033;-54
2021/12/28 08:39:19;;;;;;;9.53;5.33;;;;;;;5.45;61.36;101076.25;1745556;80;21026;-53
2021/12/28 08:41:46;;;;;;;6.53;5.20;;;;;;;5.41;61.55;101072.80;1749513;81;21106;-53
2021/12/28 08:44:13;;;;;;;6.08;4.97;;;;;;;5.43;61.69;101067.63;1759261;80;21070;-53
2021/12/28 08:46:39;;;;;;;6.05;5.28;;;;;;;5.46;61.74;101070.24;1752042;80;21025;-54
2021/12/28 08:49:07;;;;;;;6.97;4.95;;;;;;;5.50;61.81;101069.39;1740061;80;21001;-53
2021/12/28 08:51:34;;;;;;;5.78;4.83;;;;;;;5.55;61.78;101076.71;1730490;81;21098;-54
2021/12/28 08:54:00;;;;;;;6.00;4.33;;;;;;;5.60;61.62;101075.02;1736445;80;21094;-54
2021/12/28 08:56:27;;;;;;;6.42;4.72;;;;;;;5.64;61.49;101088.37;1742161;80;21004;-54
2021/12/28 08:58:54;;;;;;;5.17;4.37;;;;;;;5.61;61.01;101085.77;1758551;80;21018;-54
2021/12/28 09:01:21;;;;;;;4.40;4.00;;;;;;;5.57;60.97;101095.23;1748424;80;21059;-53
2021/12/28 09:03:49;;;;;;;4.37;3.72;;;;;;;5.53;61.08;101097.78;1744711;80;21783;-53
2021/12/28 09:06:16;;;;;;;4.90;3.50;;;;;;;5.55;61.19;101098.65;1762071;80;21530;-54
2021/12/28 09:08:42;;;;;;;4.70;4.00;;;;;;;5.60;61.28;101094.38;1751895;80;20996;-54
2021/12/28 09:11:09;;;;;;;4.08;3.40;;;;;;;5.60;61.01;101095.67;1737833;80;21085;-53
2021/12/28 09:13:37;;;;;;;6.20;4.03;;;;;;;5.60;61.00;101084.06;1756422;80;20995;-54
2021/12/28 09:16:04;;;;;;;5.00;3.98;;;;;;;5.58;60.83;101085.77;1747289;80;20987;-54
2021/12/28 09:18:33;;;;;;;3.98;3.58;;;;;;;5.52;60.76;101081.88;1751168;81;21049;-54
2021/12/28 09:20:59;;;;;;;4.30;3.67;;;;;;;5.48;60.87;101082.72;1749889;80;21091;-54
2021/12/28 09:23:25;;;;;;;5.78;4.00;;;;;;;5.46;61.06;101085.73;1744289;80;21022;-54
2021/12/28 09:25:52;;;;;;;4.05;3.58;;;;;;;5.46;60.95;101090.89;1741943;80;20999;-54
2021/12/28 09:28:19;;;;;;;3.50;3.20;;;;;;;5.43;60.94;101096.02;1746654;80;21057;-53
2021/12/28 09:30:46;;;;;;;3.85;3.05;;;;;;;5.38;60.88;101099.03;1749400;80;20998;-53
2021/12/28 09:33:13;;;;;;;4.95;2.90;;;;;;;5.35;61.02;101110.61;1765394;80;21548;-54
2021/12/28 09:35:39;;;;;;;4.33;2.60;;;;;;;5.32;61.22;101118.32;1761778;80;21509;-53
2021/12/28 09:38:06;;;;;;;3.72;3.08;;;;;;;5.31;61.36;101125.22;1763511;80;21093;-54
2021/12/28 09:40:34;;;;;;;4.12;2.90;;;;;;;5.34;61.40;101126.93;1750907;80;21094;-53
2021/12/28 09:43:04;;;;;;;3.35;2.70;;;;;;;5.38;61.35;101126.13;1756060;80;21081;-53
2021/12/28 09:45:33;;;;;;;3.52;2.80;;;;;;;5.40;61.37;101120.09;1760213;80;21014;-54
2021/12/28 09:48:00;;;;;;;3.12;2.80;;;;;;;5.42;61.18;101121.41;1699162;83;21028;-54
2021/12/28 09:50:26;;;;;;;3.87;2.92;;;;;;;5.40;61.10;101111.05;1678531;84;21061;-54
2021/12/28 09:52:54;;;;;;;3.62;2.90;;;;;;;5.41;61.24;101114.51;1702696;83;20996;-53
2021/12/28 09:55:23;;;;;;;4.83;3.33;;;;;;;5.46;61.32;101121.41;1697739;84;21066;-54
2021/12/28 09:57:51;;;;;;;3.33;2.62;;;;;;;5.50;61.12;101119.73;1699953;84;21121;-53
2021/12/28 10:00:19;;;;;;;3.65;3.20;;;;;;;5.47;60.87;101120.98;1695293;83;21087;-53
2021/12/28 10:02:50;;;;;;;3.67;2.80;;;;;;;5.43;60.83;101119.25;1688450;84;21908;-53
2021/12/28 10:05:23;;;;;;;3.10;2.80;;;;;;;5.40;60.83;101116.67;1699460;84;21595;-54
2021/12/28 10:07:54;;;;;;;4.00;3.20;;;;;;;5.36;60.84;101116.19;1682346;84;21011;-54
2021/12/28 10:10:21;;;;;;;4.37;3.70;;;;;;;5.35;60.95;101120.52;1618812;87;21049;-54
2021/12/28 10:12:54;;;;;;;5.50;4.20;;;;;;;5.32;60.82;101115.73;1644628;86;21847;-53
2021/12/28 10:15:25;;;;;;;6.75;4.78;;;;;;;5.28;60.89;101116.16;1646737;86;21140;-54
2021/12/28 10:17:54;;;;;;;5.53;4.90;;;;;;;5.30;60.77;101112.29;1658640;84;21537;-53
2021/12/28 10:20:26;;;;;;;5.42;4.87;;;;;;;5.32;60.97;101122.19;1658274;84;21080;-53
2021/12/28 10:22:58;;;;;;;5.83;4.85;;;;;;;5.36;60.92;101122.22;1655471;85;21047;-53
2021/12/28 10:25:28;;;;;;;7.40;5.67;;;;;;;5.39;60.79;101120.09;1679190;83;21541;-53
2021/12/28 10:27:59;;;;;;;5.70;4.90;;;;;;;5.40;60.72;101120.09;1669958;83;21016;-53
2021/12/28 10:30:32;;;;;;;6.58;5.55;;;;;;;5.43;60.49;101120.54;1624738;86;21136;-54
2021/12/28 10:33:03;;;;;;;8.33;5.83;;;;;;;5.41;60.49;101118.37;1627432;87;21200;-54
2021/12/28 10:35:36;;;;;;;5.67;5.08;;;;;;;5.43;60.62;101117.95;1611051;88;21098;-53
2021/12/28 10:38:09;;;;;;;6.55;5.15;;;;;;;5.45;60.46;101118.41;1561620;91;21038;-53
2021/12/28 10:40:41;;;;;;;7.65;6.03;;;;;;;5.47;60.40;101117.98;1543801;90;21055;-53
2021/12/28 10:43:24;;;;;;;8.30;6.12;;;;;;;5.46;60.22;101114.95;1510100;93;21846;-53
2021/12/28 10:46:00;;;;;;;7.85;5.78;;;;;;;5.43;60.22;101119.25;1507442;94;21725;-54
2021/12/28 10:48:30;;;;;;;6.92;5.80;;;;;;;5.42;60.12;101122.25;1416963;100;21620;-53
2021/12/28 10:51:12;;;;;;;11.33;7.95;;;;;;;5.42;60.21;101124.83;1411976;99;21643;-53
2021/12/28 10:54:12;;;;;;;9.05;7.08;;;;;;;5.31;60.21;101125.22;1409146;100;21136;-54
2021/12/28 10:56:54;;;;;;;8.85;6.65;;;;;;;5.23;60.48;101121.73;1411821;100;21128;-54
2021/12/28 10:59:24;;;;;;;8.63;7.40;;;;;;;5.22;60.54;101127.73;1414857;100;21692;-53
2021/12/28 11:01:51;;;;;;;9.60;7.20;;;;;;;5.19;60.45;101125.16;1423809;99;21167;-53
2021/12/28 11:04:19;;;;;;;10.43;7.92;;;;;;;5.15;60.45;101130.28;1427825;99;21218;-53
2021/12/28 11:06:49;;;;;;;9.73;8.13;;;;;;;5.12;60.52;101125.09;1422915;99;21125;-54
2021/12/28 11:09:24;;;;;;;11.30;8.25;;;;;;;5.12;60.74;101127.67;1429836;99;21193;-53
2021/12/28 11:11:53;;;;;;;12.58;8.63;;;;;;;5.14;60.74;101123.38;1423628;99;21657;-53
2021/12/28 11:14:23;;;;;;;12.82;8.68;;;;;;;5.16;60.55;101124.25;1392384;102;21166;-53
2021/12/28 11:16:51;;;;;;;12.25;8.73;;;;;;;5.13;60.51;101127.67;1385575;101;21159;-53
2021/12/28 11:19:32;;;;;;;13.08;8.68;;;;;;;5.15;60.48;101130.28;1401129;101;21090;-52
2021/12/28 11:22:08;;;;;;;12.20;8.70;;;;;;;5.14;60.54;101131.98;1414499;100;21132;-53
2021/12/28 11:24:39;;;;;;;12.95;8.95;;;;;;;5.13;60.29;101129.41;1420115;100;21181;-53
2021/12/28 11:27:07;;;;;;;12.20;8.28;;;;;;;5.11;60.46;101129.38;1428335;100;21129;-53
2021/12/28 11:29:37;;;;;;;13.55;8.70;;;;;;;5.10;60.52;101121.22;1421256;100;21184;-53
2021/12/28 11:32:08;;;;;;;13.10;9.10;;;;;;;5.11;60.59;101134.98;1380973;101;21164;-53
2021/12/28 11:34:37;;;;;;;11.85;8.98;;;;;;;5.12;60.54;101132.83;1400446;101;21161;-53
2021/12/28 11:37:08;;;;;;;13.85;9.10;;;;;;;5.10;60.40;101145.72;1413311;99;21160;-53
2021/12/28 11:39:42;;;;;;;14.25;9.05;;;;;;;5.05;60.21;101141.39;1421624;99;21298;-53
2021/12/28 11:42:10;;;;;;;14.15;9.33;;;;;;;5.01;60.23;101142.23;1429499;97;21091;-54
2021/12/28 11:44:36;;;;;;;13.55;9.43;;;;;;;4.95;60.28;101159.37;1435929;96;21085;-53
2021/12/28 11:47:07;;;;;;;15.28;9.95;;;;;;;4.90;60.26;101144.28;1468400;95;21086;-51
2021/12/28 11:49:35;;;;;;;14.68;9.75;;;;;;;4.90;60.39;101141.70;1459668;96;21195;-54